sensor_id;sensor_type;location;lat;lon;timestamp;temperature;humidity
5960;DHT22;3006;50.956;7.002;2023-05-31T00:00:09;17.20;99.90
5960;DHT22;3006;50.956;7.002;2023-05-31T00:02:39;17.10;99.90
5960;DHT22;3006;50.956;7.002;2023-05-31T00:05:08;17.10;99.90
5960;DHT22;3006;50.956;7.002;2023-05-31T00:07:36;17.00;99.90
5960;DHT22;3006;50.956;7.002;2023-05-31T00:10:05;16.90;99.90
5960;DHT22;3006;50.956;7.002;2023-05-31T00:12:33;16.90;99.90
5960;DHT22;3006;50.956;7.002;2023-05-31T00:15:01;16.90;99.90
5960;DHT22;3006;50.956;7.002;2023-05-31T00:17:30;16.90;99.90
5960;DHT22;3006;50.956;7.002;2023-05-31T00:20:17;16.90;99.90
5960;DHT22;3006;50.956;7.002;2023-05-31T00:22:46;16.90;99.90
5960;DHT22;3006;50.956;7.002;2023-05-31T00:25:14;16.90;99.90
5960;DHT22;3006;50.956;7.002;2023-05-31T00:27:42;16.90;99.90
5960;DHT22;3006;50.956;7.002;2023-05-31T00:30:11;16.90;99.90
5960;DHT22;3006;50.956;7.002;2023-05-31T00:32:40;16.90;99.90
5960;DHT22;3006;50.956;7.002;2023-05-31T00:35:09;17.00;99.90
5960;DHT22;3006;50.956;7.002;2023-05-31T00:37:38;17.00;99.90
5960;DHT22;3006;50.956;7.002;2023-05-31T00:40:07;17.00;99.90
5960;DHT22;3006;50.956;7.002;2023-05-31T00:42:35;17.00;99.90
5960;DHT22;3006;50.956;7.002;2023-05-31T00:45:05;16.90;99.90
5960;DHT22;3006;50.956;7.002;2023-05-31T00:47:34;16.80;99.90
5960;DHT22;3006;50.956;7.002;2023-05-31T00:50:03;16.80;99.90
5960;DHT22;3006;50.956;7.002;2023-05-31T00:52:32;16.70;99.90
5960;DHT22;3006;50.956;7.002;2023-05-31T00:55:03;16.70;99.90
5960;DHT22;3006;50.956;7.002;2023-05-31T00:57:32;16.60;99.90
5960;DHT22;3006;50.956;7.002;2023-05-31T01:00:00;16.60;99.90
5960;DHT22;3006;50.956;7.002;2023-05-31T01:02:28;16.70;99.90
5960;DHT22;3006;50.956;7.002;2023-05-31T01:04:59;16.70;99.90
5960;DHT22;3006;50.956;7.002;2023-05-31T01:07:28;16.80;99.90
5960;DHT22;3006;50.956;7.002;2023-05-31T01:09:56;16.80;99.90
5960;DHT22;3006;50.956;7.002;2023-05-31T01:12:33;16.70;99.90
5960;DHT22;3006;50.956;7.002;2023-05-31T01:15:10;16.70;99.90
5960;DHT22;3006;50.956;7.002;2023-05-31T01:17:45;16.60;99.90
5960;DHT22;3006;50.956;7.002;2023-05-31T01:20:16;16.60;99.90
5960;DHT22;3006;50.956;7.002;2023-05-31T01:23:00;16.60;99.90
5960;DHT22;3006;50.956;7.002;2023-05-31T01:25:40;16.50;99.90
5960;DHT22;3006;50.956;7.002;2023-05-31T01:28:16;16.40;99.90
5960;DHT22;3006;50.956;7.002;2023-05-31T01:30:45;16.40;99.90
5960;DHT22;3006;50.956;7.002;2023-05-31T01:33:14;16.40;99.90
5960;DHT22;3006;50.956;7.002;2023-05-31T01:35:43;16.40;99.90
5960;DHT22;3006;50.956;7.002;2023-05-31T01:38:12;16.40;99.90
5960;DHT22;3006;50.956;7.002;2023-05-31T01:40:40;16.40;99.90
5960;DHT22;3006;50.956;7.002;2023-05-31T01:43:08;16.40;99.90
5960;DHT22;3006;50.956;7.002;2023-05-31T01:45:39;16.40;99.90
5960;DHT22;3006;50.956;7.002;2023-05-31T01:48:09;16.40;99.90
5960;DHT22;3006;50.956;7.002;2023-05-31T01:50:39;16.40;99.90
5960;DHT22;3006;50.956;7.002;2023-05-31T01:53:08;16.30;99.90
5960;DHT22;3006;50.956;7.002;2023-05-31T01:55:36;16.40;99.90
5960;DHT22;3006;50.956;7.002;2023-05-31T01:58:05;16.40;99.90
5960;DHT22;3006;50.956;7.002;2023-05-31T02:00:35;16.30;99.90
5960;DHT22;3006;50.956;7.002;2023-05-31T02:03:05;16.30;99.90
5960;DHT22;3006;50.956;7.002;2023-05-31T02:05:33;16.20;99.90
5960;DHT22;3006;50.956;7.002;2023-05-31T02:08:01;16.20;99.90
5960;DHT22;3006;50.956;7.002;2023-05-31T02:10:30;16.10;99.90
5960;DHT22;3006;50.956;7.002;2023-05-31T02:12:59;16.10;99.90
5960;DHT22;3006;50.956;7.002;2023-05-31T02:15:28;16.10;99.90
5960;DHT22;3006;50.956;7.002;2023-05-31T02:17:56;16.10;99.90
5960;DHT22;3006;50.956;7.002;2023-05-31T02:20:26;16.00;99.90
5960;DHT22;3006;50.956;7.002;2023-05-31T02:22:55;16.00;99.90
5960;DHT22;3006;50.956;7.002;2023-05-31T02:25:23;16.00;99.90
5960;DHT22;3006;50.956;7.002;2023-05-31T02:27:51;15.90;99.90
5960;DHT22;3006;50.956;7.002;2023-05-31T02:30:25;15.90;99.90
5960;DHT22;3006;50.956;7.002;2023-05-31T02:32:53;15.90;99.90
5960;DHT22;3006;50.956;7.002;2023-05-31T02:35:21;15.80;99.90
5960;DHT22;3006;50.956;7.002;2023-05-31T02:37:51;15.80;99.90
5960;DHT22;3006;50.956;7.002;2023-05-31T02:40:19;15.90;99.90
5960;DHT22;3006;50.956;7.002;2023-05-31T02:42:47;15.80;99.90
5960;DHT22;3006;50.956;7.002;2023-05-31T02:45:16;15.90;99.90
5960;DHT22;3006;50.956;7.002;2023-05-31T02:47:45;15.90;99.90
5960;DHT22;3006;50.956;7.002;2023-05-31T02:50:14;15.80;99.90
5960;DHT22;3006;50.956;7.002;2023-05-31T02:52:54;15.80;99.90
5960;DHT22;3006;50.956;7.002;2023-05-31T02:55:33;15.80;99.90
5960;DHT22;3006;50.956;7.002;2023-05-31T02:58:19;15.80;99.90
5960;DHT22;3006;50.956;7.002;2023-05-31T03:01:23;15.70;99.90
5960;DHT22;3006;50.956;7.002;2023-05-31T03:04:08;15.70;99.90
5960;DHT22;3006;50.956;7.002;2023-05-31T03:06:37;15.70;99.90
5960;DHT22;3006;50.956;7.002;2023-05-31T03:09:08;15.60;99.90
5960;DHT22;3006;50.956;7.002;2023-05-31T03:11:42;15.70;99.90
5960;DHT22;3006;50.956;7.002;2023-05-31T03:14:10;15.70;99.90
5960;DHT22;3006;50.956;7.002;2023-05-31T03:16:46;15.70;99.90
5960;DHT22;3006;50.956;7.002;2023-05-31T03:19:16;15.80;99.90
5960;DHT22;3006;50.956;7.002;2023-05-31T03:21:48;15.70;99.90
5960;DHT22;3006;50.956;7.002;2023-05-31T03:24:18;15.70;99.90
5960;DHT22;3006;50.956;7.002;2023-05-31T03:26:48;15.70;99.90
5960;DHT22;3006;50.956;7.002;2023-05-31T03:29:17;15.80;99.90
5960;DHT22;3006;50.956;7.002;2023-05-31T03:31:46;15.70;99.90
5960;DHT22;3006;50.956;7.002;2023-05-31T03:34:15;15.70;99.90
5960;DHT22;3006;50.956;7.002;2023-05-31T03:36:43;15.70;99.90
5960;DHT22;3006;50.956;7.002;2023-05-31T03:39:38;15.70;99.90
5960;DHT22;3006;50.956;7.002;2023-05-31T03:42:09;15.70;99.90
5960;DHT22;3006;50.956;7.002;2023-05-31T03:44:37;15.60;99.90
5960;DHT22;3006;50.956;7.002;2023-05-31T03:47:06;15.60;99.90
5960;DHT22;3006;50.956;7.002;2023-05-31T03:49:35;15.50;99.90
5960;DHT22;3006;50.956;7.002;2023-05-31T03:52:04;15.50;99.90
5960;DHT22;3006;50.956;7.002;2023-05-31T03:54:32;15.50;99.90
5960;DHT22;3006;50.956;7.002;2023-05-31T03:57:01;15.50;99.90
5960;DHT22;3006;50.956;7.002;2023-05-31T03:59:29;15.50;99.90
5960;DHT22;3006;50.956;7.002;2023-05-31T04:01:58;15.50;99.90
5960;DHT22;3006;50.956;7.002;2023-05-31T04:04:26;15.40;99.90
5960;DHT22;3006;50.956;7.002;2023-05-31T04:06:54;15.40;99.90
5960;DHT22;3006;50.956;7.002;2023-05-31T04:09:22;15.50;99.90
5960;DHT22;3006;50.956;7.002;2023-05-31T04:11:55;15.40;99.90
5960;DHT22;3006;50.956;7.002;2023-05-31T04:14:25;15.50;99.90
5960;DHT22;3006;50.956;7.002;2023-05-31T04:16:54;15.60;99.90
5960;DHT22;3006;50.956;7.002;2023-05-31T04:19:22;15.60;99.90
5960;DHT22;3006;50.956;7.002;2023-05-31T04:21:51;15.60;99.90
5960;DHT22;3006;50.956;7.002;2023-05-31T04:24:19;15.60;99.90
5960;DHT22;3006;50.956;7.002;2023-05-31T04:26:47;15.70;99.90
5960;DHT22;3006;50.956;7.002;2023-05-31T04:29:15;15.80;99.90
5960;DHT22;3006;50.956;7.002;2023-05-31T04:31:46;15.70;99.90
5960;DHT22;3006;50.956;7.002;2023-05-31T04:34:19;15.70;99.90
5960;DHT22;3006;50.956;7.002;2023-05-31T04:36:50;15.80;99.90
5960;DHT22;3006;50.956;7.002;2023-05-31T04:39:21;15.90;99.90
5960;DHT22;3006;50.956;7.002;2023-05-31T04:41:55;15.80;99.90
5960;DHT22;3006;50.956;7.002;2023-05-31T04:44:23;15.80;99.90
5960;DHT22;3006;50.956;7.002;2023-05-31T04:46:55;15.80;99.90
5960;DHT22;3006;50.956;7.002;2023-05-31T04:49:24;15.90;99.90
5960;DHT22;3006;50.956;7.002;2023-05-31T04:51:57;15.90;99.90
5960;DHT22;3006;50.956;7.002;2023-05-31T04:54:26;16.00;99.90
5960;DHT22;3006;50.956;7.002;2023-05-31T04:56:54;16.10;99.90
5960;DHT22;3006;50.956;7.002;2023-05-31T04:59:25;16.10;99.90
5960;DHT22;3006;50.956;7.002;2023-05-31T05:01:55;16.10;99.90
5960;DHT22;3006;50.956;7.002;2023-05-31T05:04:23;16.10;99.90
5960;DHT22;3006;50.956;7.002;2023-05-31T05:06:51;16.20;99.90
5960;DHT22;3006;50.956;7.002;2023-05-31T05:09:20;16.20;99.90
5960;DHT22;3006;50.956;7.002;2023-05-31T05:11:49;16.20;99.90
5960;DHT22;3006;50.956;7.002;2023-05-31T05:14:20;16.30;99.90
5960;DHT22;3006;50.956;7.002;2023-05-31T05:16:48;16.30;99.90
5960;DHT22;3006;50.956;7.002;2023-05-31T05:19:17;16.30;99.90
5960;DHT22;3006;50.956;7.002;2023-05-31T05:21:46;16.40;99.90
5960;DHT22;3006;50.956;7.002;2023-05-31T05:24:15;16.40;99.90
5960;DHT22;3006;50.956;7.002;2023-05-31T05:26:43;16.50;99.90
5960;DHT22;3006;50.956;7.002;2023-05-31T05:29:11;16.50;99.90
5960;DHT22;3006;50.956;7.002;2023-05-31T05:31:40;16.50;99.90
5960;DHT22;3006;50.956;7.002;2023-05-31T05:34:08;16.60;99.90
5960;DHT22;3006;50.956;7.002;2023-05-31T05:36:38;16.60;99.90
5960;DHT22;3006;50.956;7.002;2023-05-31T05:39:07;16.60;99.90
5960;DHT22;3006;50.956;7.002;2023-05-31T05:41:35;16.60;99.90
5960;DHT22;3006;50.956;7.002;2023-05-31T05:44:04;16.60;99.90
5960;DHT22;3006;50.956;7.002;2023-05-31T05:46:34;16.70;99.90
5960;DHT22;3006;50.956;7.002;2023-05-31T05:49:02;16.70;99.90
5960;DHT22;3006;50.956;7.002;2023-05-31T05:51:31;16.80;99.90
5960;DHT22;3006;50.956;7.002;2023-05-31T05:54:06;16.80;99.90
5960;DHT22;3006;50.956;7.002;2023-05-31T05:56:37;16.90;99.90
5960;DHT22;3006;50.956;7.002;2023-05-31T05:59:06;16.90;99.90
5960;DHT22;3006;50.956;7.002;2023-05-31T06:01:54;17.00;99.90
5960;DHT22;3006;50.956;7.002;2023-05-31T06:04:23;17.00;99.90
5960;DHT22;3006;50.956;7.002;2023-05-31T06:06:51;17.00;99.90
5960;DHT22;3006;50.956;7.002;2023-05-31T06:09:22;17.10;99.90
5960;DHT22;3006;50.956;7.002;2023-05-31T06:11:50;17.20;99.90
5960;DHT22;3006;50.956;7.002;2023-05-31T06:14:19;17.20;99.90
5960;DHT22;3006;50.956;7.002;2023-05-31T06:16:50;17.30;99.90
5960;DHT22;3006;50.956;7.002;2023-05-31T06:19:19;17.30;99.90
5960;DHT22;3006;50.956;7.002;2023-05-31T06:21:47;17.40;99.90
5960;DHT22;3006;50.956;7.002;2023-05-31T06:24:16;17.40;99.90
5960;DHT22;3006;50.956;7.002;2023-05-31T06:26:46;17.50;99.90
5960;DHT22;3006;50.956;7.002;2023-05-31T06:29:14;17.60;99.90
5960;DHT22;3006;50.956;7.002;2023-05-31T06:32:03;17.60;99.90
5960;DHT22;3006;50.956;7.002;2023-05-31T06:34:36;17.60;99.90
5960;DHT22;3006;50.956;7.002;2023-05-31T06:37:04;17.70;99.90
5960;DHT22;3006;50.956;7.002;2023-05-31T06:39:35;17.80;99.90
5960;DHT22;3006;50.956;7.002;2023-05-31T06:42:06;17.80;99.90
5960;DHT22;3006;50.956;7.002;2023-05-31T06:44:54;17.90;99.90
5960;DHT22;3006;50.956;7.002;2023-05-31T06:47:43;18.00;99.90
5960;DHT22;3006;50.956;7.002;2023-05-31T06:50:14;18.10;99.90
5960;DHT22;3006;50.956;7.002;2023-05-31T06:52:45;18.10;99.90
5960;DHT22;3006;50.956;7.002;2023-05-31T06:55:32;18.20;99.90
5960;DHT22;3006;50.956;7.002;2023-05-31T06:58:02;18.30;99.90
5960;DHT22;3006;50.956;7.002;2023-05-31T07:00:32;18.30;99.90
5960;DHT22;3006;50.956;7.002;2023-05-31T07:03:01;18.40;99.90
5960;DHT22;3006;50.956;7.002;2023-05-31T07:05:29;18.40;99.90
5960;DHT22;3006;50.956;7.002;2023-05-31T07:07:58;18.40;99.90
5960;DHT22;3006;50.956;7.002;2023-05-31T07:10:27;18.40;99.90
5960;DHT22;3006;50.956;7.002;2023-05-31T07:12:55;18.40;99.90
5960;DHT22;3006;50.956;7.002;2023-05-31T07:15:25;18.50;99.90
5960;DHT22;3006;50.956;7.002;2023-05-31T07:17:54;18.60;99.90
5960;DHT22;3006;50.956;7.002;2023-05-31T07:20:22;18.70;99.90
5960;DHT22;3006;50.956;7.002;2023-05-31T07:22:50;18.70;99.90
5960;DHT22;3006;50.956;7.002;2023-05-31T07:25:19;18.70;99.90
5960;DHT22;3006;50.956;7.002;2023-05-31T07:27:47;18.70;99.90
5960;DHT22;3006;50.956;7.002;2023-05-31T07:30:15;18.80;99.90
5960;DHT22;3006;50.956;7.002;2023-05-31T07:32:44;18.80;99.90
5960;DHT22;3006;50.956;7.002;2023-05-31T07:35:12;18.90;99.90
5960;DHT22;3006;50.956;7.002;2023-05-31T07:37:40;18.90;99.90
5960;DHT22;3006;50.956;7.002;2023-05-31T07:40:09;19.00;99.90
5960;DHT22;3006;50.956;7.002;2023-05-31T07:42:37;19.10;99.90
5960;DHT22;3006;50.956;7.002;2023-05-31T07:45:06;19.00;99.90
5960;DHT22;3006;50.956;7.002;2023-05-31T07:47:35;19.00;99.90
5960;DHT22;3006;50.956;7.002;2023-05-31T07:50:06;19.10;99.90
5960;DHT22;3006;50.956;7.002;2023-05-31T07:52:34;19.10;99.90
5960;DHT22;3006;50.956;7.002;2023-05-31T07:55:02;19.30;99.90
5960;DHT22;3006;50.956;7.002;2023-05-31T07:57:33;19.30;99.90
5960;DHT22;3006;50.956;7.002;2023-05-31T08:00:01;19.30;99.90
5960;DHT22;3006;50.956;7.002;2023-05-31T08:02:37;19.30;99.90
5960;DHT22;3006;50.956;7.002;2023-05-31T08:05:08;19.40;99.90
5960;DHT22;3006;50.956;7.002;2023-05-31T08:07:36;19.50;99.90
5960;DHT22;3006;50.956;7.002;2023-05-31T08:10:05;19.60;99.90
5960;DHT22;3006;50.956;7.002;2023-05-31T08:12:33;19.70;99.90
5960;DHT22;3006;50.956;7.002;2023-05-31T08:15:01;19.80;99.90
5960;DHT22;3006;50.956;7.002;2023-05-31T08:17:29;19.90;99.90
5960;DHT22;3006;50.956;7.002;2023-05-31T08:19:58;19.90;99.90
5960;DHT22;3006;50.956;7.002;2023-05-31T08:22:27;20.00;99.90
5960;DHT22;3006;50.956;7.002;2023-05-31T08:24:55;20.10;99.90
5960;DHT22;3006;50.956;7.002;2023-05-31T08:27:23;20.20;99.90
5960;DHT22;3006;50.956;7.002;2023-05-31T08:29:51;20.30;99.90
5960;DHT22;3006;50.956;7.002;2023-05-31T08:32:20;20.30;99.10
5960;DHT22;3006;50.956;7.002;2023-05-31T08:34:48;20.40;98.70
5960;DHT22;3006;50.956;7.002;2023-05-31T08:37:16;20.40;98.10
5960;DHT22;3006;50.956;7.002;2023-05-31T08:39:45;20.40;97.30
5960;DHT22;3006;50.956;7.002;2023-05-31T08:42:17;20.50;97.60
5960;DHT22;3006;50.956;7.002;2023-05-31T08:44:46;20.50;97.30
5960;DHT22;3006;50.956;7.002;2023-05-31T08:47:19;20.60;97.10
5960;DHT22;3006;50.956;7.002;2023-05-31T08:49:51;20.60;97.10
5960;DHT22;3006;50.956;7.002;2023-05-31T08:52:21;20.70;96.70
5960;DHT22;3006;50.956;7.002;2023-05-31T08:54:51;20.80;97.20
5960;DHT22;3006;50.956;7.002;2023-05-31T08:57:20;20.90;97.30
5960;DHT22;3006;50.956;7.002;2023-05-31T08:59:49;21.00;97.40
5960;DHT22;3006;50.956;7.002;2023-05-31T09:02:18;21.10;95.90
5960;DHT22;3006;50.956;7.002;2023-05-31T09:04:47;21.10;95.70
5960;DHT22;3006;50.956;7.002;2023-05-31T09:07:17;21.10;95.40
5960;DHT22;3006;50.956;7.002;2023-05-31T09:09:45;21.10;95.00
5960;DHT22;3006;50.956;7.002;2023-05-31T09:12:16;21.10;95.00
5960;DHT22;3006;50.956;7.002;2023-05-31T09:14:44;21.20;95.10
5960;DHT22;3006;50.956;7.002;2023-05-31T09:17:12;21.20;96.60
5960;DHT22;3006;50.956;7.002;2023-05-31T09:19:41;21.30;96.70
5960;DHT22;3006;50.956;7.002;2023-05-31T09:22:16;21.40;95.40
5960;DHT22;3006;50.956;7.002;2023-05-31T09:24:50;21.50;94.70
5960;DHT22;3006;50.956;7.002;2023-05-31T09:27:20;21.60;93.20
5960;DHT22;3006;50.956;7.002;2023-05-31T09:29:50;21.60;92.90
5960;DHT22;3006;50.956;7.002;2023-05-31T09:32:19;21.70;93.30
5960;DHT22;3006;50.956;7.002;2023-05-31T09:34:47;21.80;92.60
5960;DHT22;3006;50.956;7.002;2023-05-31T09:37:22;21.90;92.10
5960;DHT22;3006;50.956;7.002;2023-05-31T09:39:54;21.90;92.30
5960;DHT22;3006;50.956;7.002;2023-05-31T09:42:26;22.00;91.60
5960;DHT22;3006;50.956;7.002;2023-05-31T09:44:55;22.10;90.30
5960;DHT22;3006;50.956;7.002;2023-05-31T09:47:26;22.10;90.00
5960;DHT22;3006;50.956;7.002;2023-05-31T09:49:55;22.00;89.50
5960;DHT22;3006;50.956;7.002;2023-05-31T09:52:26;22.00;89.70
5960;DHT22;3006;50.956;7.002;2023-05-31T09:54:55;22.00;90.10
5960;DHT22;3006;50.956;7.002;2023-05-31T09:57:33;22.00;89.50
5960;DHT22;3006;50.956;7.002;2023-05-31T10:00:08;22.00;89.70
5960;DHT22;3006;50.956;7.002;2023-05-31T10:02:43;22.10;88.10
5960;DHT22;3006;50.956;7.002;2023-05-31T10:05:12;22.00;90.00
5960;DHT22;3006;50.956;7.002;2023-05-31T10:07:41;22.00;88.20
5960;DHT22;3006;50.956;7.002;2023-05-31T10:10:10;22.10;87.70
5960;DHT22;3006;50.956;7.002;2023-05-31T10:12:45;22.20;87.60
5960;DHT22;3006;50.956;7.002;2023-05-31T10:15:17;22.20;87.30
5960;DHT22;3006;50.956;7.002;2023-05-31T10:17:53;22.20;87.60
5960;DHT22;3006;50.956;7.002;2023-05-31T10:20:24;22.20;87.30
5960;DHT22;3006;50.956;7.002;2023-05-31T10:22:54;22.30;87.70
5960;DHT22;3006;50.956;7.002;2023-05-31T10:25:28;22.40;87.10
5960;DHT22;3006;50.956;7.002;2023-05-31T10:28:01;22.40;87.10
5960;DHT22;3006;50.956;7.002;2023-05-31T10:30:34;22.50;85.00
5960;DHT22;3006;50.956;7.002;2023-05-31T10:33:07;22.50;84.40
5960;DHT22;3006;50.956;7.002;2023-05-31T10:35:35;22.60;83.30
5960;DHT22;3006;50.956;7.002;2023-05-31T10:38:03;22.60;83.00
5960;DHT22;3006;50.956;7.002;2023-05-31T10:40:37;22.60;83.80
5960;DHT22;3006;50.956;7.002;2023-05-31T10:43:12;22.60;82.40
5960;DHT22;3006;50.956;7.002;2023-05-31T10:45:45;22.70;82.70
5960;DHT22;3006;50.956;7.002;2023-05-31T10:48:19;22.60;82.20
5960;DHT22;3006;50.956;7.002;2023-05-31T10:50:52;22.60;82.40
5960;DHT22;3006;50.956;7.002;2023-05-31T10:53:21;22.60;82.10
5960;DHT22;3006;50.956;7.002;2023-05-31T10:55:49;22.60;81.70
5960;DHT22;3006;50.956;7.002;2023-05-31T10:58:26;22.70;82.30
5960;DHT22;3006;50.956;7.002;2023-05-31T11:00:55;22.80;81.60
5960;DHT22;3006;50.956;7.002;2023-05-31T11:03:24;22.90;79.20
5960;DHT22;3006;50.956;7.002;2023-05-31T11:05:55;22.90;80.10
5960;DHT22;3006;50.956;7.002;2023-05-31T11:08:23;23.00;80.10
5960;DHT22;3006;50.956;7.002;2023-05-31T11:10:52;23.00;80.30
5960;DHT22;3006;50.956;7.002;2023-05-31T11:16:24;23.10;80.80
5960;DHT22;3006;50.956;7.002;2023-05-31T11:19:13;23.30;80.10
5960;DHT22;3006;50.956;7.002;2023-05-31T11:21:48;23.40;78.00
5960;DHT22;3006;50.956;7.002;2023-05-31T11:24:26;23.30;77.60
5960;DHT22;3006;50.956;7.002;2023-05-31T11:26:56;23.30;78.40
5960;DHT22;3006;50.956;7.002;2023-05-31T11:29:25;23.40;78.90
5960;DHT22;3006;50.956;7.002;2023-05-31T11:31:58;23.50;78.10
5960;DHT22;3006;50.956;7.002;2023-05-31T11:34:29;23.40;77.80
5960;DHT22;3006;50.956;7.002;2023-05-31T11:37:01;23.60;77.20
5960;DHT22;3006;50.956;7.002;2023-05-31T11:39:30;23.70;75.80
5960;DHT22;3006;50.956;7.002;2023-05-31T11:41:58;23.70;77.90
5960;DHT22;3006;50.956;7.002;2023-05-31T11:44:28;23.70;77.00
5960;DHT22;3006;50.956;7.002;2023-05-31T11:47:04;23.80;77.20
5960;DHT22;3006;50.956;7.002;2023-05-31T11:49:33;23.80;77.20
5960;DHT22;3006;50.956;7.002;2023-05-31T11:52:01;23.90;78.20
5960;DHT22;3006;50.956;7.002;2023-05-31T11:54:31;24.00;75.90
5960;DHT22;3006;50.956;7.002;2023-05-31T11:57:03;24.00;76.10
5960;DHT22;3006;50.956;7.002;2023-05-31T11:59:34;24.00;75.90
5960;DHT22;3006;50.956;7.002;2023-05-31T12:02:05;24.10;76.00
5960;DHT22;3006;50.956;7.002;2023-05-31T12:04:35;24.30;76.00
5960;DHT22;3006;50.956;7.002;2023-05-31T12:07:04;24.30;75.20
5960;DHT22;3006;50.956;7.002;2023-05-31T12:09:33;24.30;74.80
5960;DHT22;3006;50.956;7.002;2023-05-31T12:12:02;24.30;75.50
5960;DHT22;3006;50.956;7.002;2023-05-31T12:14:33;24.40;75.30
5960;DHT22;3006;50.956;7.002;2023-05-31T12:17:04;24.40;73.50
5960;DHT22;3006;50.956;7.002;2023-05-31T12:19:32;24.40;73.70
5960;DHT22;3006;50.956;7.002;2023-05-31T12:22:01;24.50;74.30
5960;DHT22;3006;50.956;7.002;2023-05-31T12:24:29;24.60;74.30
5960;DHT22;3006;50.956;7.002;2023-05-31T12:26:57;24.70;75.20
5960;DHT22;3006;50.956;7.002;2023-05-31T12:29:27;24.80;75.30
5960;DHT22;3006;50.956;7.002;2023-05-31T12:32:05;24.90;75.20
5960;DHT22;3006;50.956;7.002;2023-05-31T12:34:34;25.00;72.50
5960;DHT22;3006;50.956;7.002;2023-05-31T12:37:05;25.20;71.90
5960;DHT22;3006;50.956;7.002;2023-05-31T12:39:34;25.30;71.90
5960;DHT22;3006;50.956;7.002;2023-05-31T12:42:03;25.30;72.90
5960;DHT22;3006;50.956;7.002;2023-05-31T12:44:33;25.30;72.30
5960;DHT22;3006;50.956;7.002;2023-05-31T12:47:07;25.30;72.80
5960;DHT22;3006;50.956;7.002;2023-05-31T12:49:35;25.30;73.80
5960;DHT22;3006;50.956;7.002;2023-05-31T12:52:05;25.50;73.70
5960;DHT22;3006;50.956;7.002;2023-05-31T12:54:34;25.60;73.50
5960;DHT22;3006;50.956;7.002;2023-05-31T12:57:04;25.80;74.40
5960;DHT22;3006;50.956;7.002;2023-05-31T12:59:33;25.80;73.40
5960;DHT22;3006;50.956;7.002;2023-05-31T13:02:03;25.90;74.20
5960;DHT22;3006;50.956;7.002;2023-05-31T13:04:32;26.00;74.50
5960;DHT22;3006;50.956;7.002;2023-05-31T13:07:01;26.00;74.30
5960;DHT22;3006;50.956;7.002;2023-05-31T13:09:29;26.10;74.60
5960;DHT22;3006;50.956;7.002;2023-05-31T13:12:01;26.20;74.50
5960;DHT22;3006;50.956;7.002;2023-05-31T13:14:29;26.30;76.40
5960;DHT22;3006;50.956;7.002;2023-05-31T13:16:57;26.30;76.50
5960;DHT22;3006;50.956;7.002;2023-05-31T13:19:26;26.40;77.50
5960;DHT22;3006;50.956;7.002;2023-05-31T13:21:54;26.40;77.60
5960;DHT22;3006;50.956;7.002;2023-05-31T13:24:23;26.20;78.00
5960;DHT22;3006;50.956;7.002;2023-05-31T13:26:51;26.30;78.60
5960;DHT22;3006;50.956;7.002;2023-05-31T13:29:19;26.20;77.40
5960;DHT22;3006;50.956;7.002;2023-05-31T13:31:49;26.10;77.20
5960;DHT22;3006;50.956;7.002;2023-05-31T13:34:17;26.10;77.40
5960;DHT22;3006;50.956;7.002;2023-05-31T13:36:47;26.30;78.50
5960;DHT22;3006;50.956;7.002;2023-05-31T13:39:15;26.50;78.80
5960;DHT22;3006;50.956;7.002;2023-05-31T13:41:44;26.70;77.20
5960;DHT22;3006;50.956;7.002;2023-05-31T13:44:12;26.80;79.60
5960;DHT22;3006;50.956;7.002;2023-05-31T13:46:42;27.00;76.60
5960;DHT22;3006;50.956;7.002;2023-05-31T13:49:10;27.00;75.60
5960;DHT22;3006;50.956;7.002;2023-05-31T13:51:42;26.90;75.20
5960;DHT22;3006;50.956;7.002;2023-05-31T13:54:12;27.00;75.50
5960;DHT22;3006;50.956;7.002;2023-05-31T13:56:41;27.10;76.40
5960;DHT22;3006;50.956;7.002;2023-05-31T13:59:09;27.30;75.50
5960;DHT22;3006;50.956;7.002;2023-05-31T14:01:37;27.40;74.30
5960;DHT22;3006;50.956;7.002;2023-05-31T14:04:06;27.40;74.20
5960;DHT22;3006;50.956;7.002;2023-05-31T14:06:34;27.50;74.80
5960;DHT22;3006;50.956;7.002;2023-05-31T14:09:03;27.80;74.20
5960;DHT22;3006;50.956;7.002;2023-05-31T14:11:33;28.00;73.30
5960;DHT22;3006;50.956;7.002;2023-05-31T14:14:01;27.90;72.10
5960;DHT22;3006;50.956;7.002;2023-05-31T14:16:29;27.80;71.90
5960;DHT22;3006;50.956;7.002;2023-05-31T14:18:58;27.90;72.20
5960;DHT22;3006;50.956;7.002;2023-05-31T14:21:26;27.90;72.00
5960;DHT22;3006;50.956;7.002;2023-05-31T14:23:55;27.90;71.50
5960;DHT22;3006;50.956;7.002;2023-05-31T14:26:23;27.90;71.00
5960;DHT22;3006;50.956;7.002;2023-05-31T14:28:52;28.10;71.00
5960;DHT22;3006;50.956;7.002;2023-05-31T14:31:20;28.30;70.20
5960;DHT22;3006;50.956;7.002;2023-05-31T14:33:48;28.40;69.70
5960;DHT22;3006;50.956;7.002;2023-05-31T14:36:17;28.40;69.60
5960;DHT22;3006;50.956;7.002;2023-05-31T14:38:45;28.50;69.40
5960;DHT22;3006;50.956;7.002;2023-05-31T14:41:14;28.30;69.00
5960;DHT22;3006;50.956;7.002;2023-05-31T14:43:42;28.10;69.90
5960;DHT22;3006;50.956;7.002;2023-05-31T14:46:12;28.10;69.50
5960;DHT22;3006;50.956;7.002;2023-05-31T14:48:40;28.10;69.50
5960;DHT22;3006;50.956;7.002;2023-05-31T14:51:09;28.20;69.60
5960;DHT22;3006;50.956;7.002;2023-05-31T14:53:37;28.30;69.60
5960;DHT22;3006;50.956;7.002;2023-05-31T14:56:05;28.60;70.10
5960;DHT22;3006;50.956;7.002;2023-05-31T14:58:36;29.00;69.00
5960;DHT22;3006;50.956;7.002;2023-05-31T15:01:04;28.90;68.30
5960;DHT22;3006;50.956;7.002;2023-05-31T15:03:33;28.80;68.40
5960;DHT22;3006;50.956;7.002;2023-05-31T15:06:02;29.00;68.00
5960;DHT22;3006;50.956;7.002;2023-05-31T15:08:30;29.10;67.30
5960;DHT22;3006;50.956;7.002;2023-05-31T15:11:01;28.90;67.90
5960;DHT22;3006;50.956;7.002;2023-05-31T15:13:29;28.80;67.20
5960;DHT22;3006;50.956;7.002;2023-05-31T15:15:58;29.00;67.20
5960;DHT22;3006;50.956;7.002;2023-05-31T15:18:26;29.30;66.50
5960;DHT22;3006;50.956;7.002;2023-05-31T15:20:55;29.40;66.60
5960;DHT22;3006;50.956;7.002;2023-05-31T15:23:24;29.20;65.80
5960;DHT22;3006;50.956;7.002;2023-05-31T15:25:52;29.00;66.90
5960;DHT22;3006;50.956;7.002;2023-05-31T15:28:20;29.00;66.40
5960;DHT22;3006;50.956;7.002;2023-05-31T15:30:48;29.00;66.20
5960;DHT22;3006;50.956;7.002;2023-05-31T15:33:16;28.90;66.50
5960;DHT22;3006;50.956;7.002;2023-05-31T15:35:44;28.70;66.70
5960;DHT22;3006;50.956;7.002;2023-05-31T15:38:14;28.40;67.00
5960;DHT22;3006;50.956;7.002;2023-05-31T15:40:42;28.00;67.60
5960;DHT22;3006;50.956;7.002;2023-05-31T15:43:10;27.80;67.20
5960;DHT22;3006;50.956;7.002;2023-05-31T15:45:38;27.50;67.90
5960;DHT22;3006;50.956;7.002;2023-05-31T15:48:06;27.40;68.40
5960;DHT22;3006;50.956;7.002;2023-05-31T15:50:34;27.30;69.10
5960;DHT22;3006;50.956;7.002;2023-05-31T15:53:02;27.40;69.00
5960;DHT22;3006;50.956;7.002;2023-05-31T15:55:32;27.40;69.00
5960;DHT22;3006;50.956;7.002;2023-05-31T15:58:00;27.40;69.10
5960;DHT22;3006;50.956;7.002;2023-05-31T16:00:28;27.40;69.40
5960;DHT22;3006;50.956;7.002;2023-05-31T16:02:56;27.40;69.10
5960;DHT22;3006;50.956;7.002;2023-05-31T16:05:24;27.40;69.00
5960;DHT22;3006;50.956;7.002;2023-05-31T16:07:53;27.20;68.50
5960;DHT22;3006;50.956;7.002;2023-05-31T16:10:21;27.10;68.90
5960;DHT22;3006;50.956;7.002;2023-05-31T16:12:51;27.00;69.10
5960;DHT22;3006;50.956;7.002;2023-05-31T16:15:19;26.90;69.30
5960;DHT22;3006;50.956;7.002;2023-05-31T16:17:47;26.80;69.40
5960;DHT22;3006;50.956;7.002;2023-05-31T16:20:15;26.70;69.60
5960;DHT22;3006;50.956;7.002;2023-05-31T16:22:44;26.60;69.90